Time;durP1;ratioP1;P1;durP2;ratioP2;P2;SDS_P1;SDS_P2;PMS_P1;PMS_P2;Temp;Humidity;BMP_temperature;BMP_pressure;BME280_temperature;BME280_humidity;BME280_pressure;Samples;Min_cycle;Max_cycle;Signal;HPM_P1;HPM_P2
2023/11/09 00:02:04;;;;;;;3.00;2.42;;;10.70;99.90;;;;;;4962677;28;20062;-84
2023/11/09 00:04:31;;;;;;;8.35;2.40;;;10.70;99.90;;;;;;4957337;29;20134;-84
2023/11/09 00:06:56;;;;;;;4.40;2.40;;;10.70;99.90;;;;;;4957956;28;20412;-84
2023/11/09 00:09:22;;;;;;;4.32;2.63;;;10.70;99.90;;;;;;4957062;29;20555;-83
2023/11/09 00:11:47;;;;;;;3.78;2.67;;;10.70;99.90;;;;;;4970943;28;20050;-83
2023/11/09 00:14:16;;;;;;;3.13;2.83;;;10.70;99.90;;;;;;4977057;28;20041;-83
2023/11/09 00:16:42;;;;;;;4.40;2.85;;;10.70;99.90;;;;;;4974626;28;20041;-83
2023/11/09 00:19:08;;;;;;;3.67;3.30;;;10.70;99.90;;;;;;4975284;28;20031;-83
2023/11/09 00:21:33;;;;;;;3.03;2.80;;;10.80;99.90;;;;;;4976400;28;20023;-84
2023/11/09 00:23:59;;;;;;;3.35;3.15;;;10.70;99.90;;;;;;4976498;28;20046;-84
2023/11/09 00:26:24;;;;;;;4.30;3.42;;;10.70;99.90;;;;;;4976784;28;20023;-84
2023/11/09 00:28:50;;;;;;;3.55;3.10;;;10.80;99.90;;;;;;4977034;28;20502;-84
2023/11/09 00:31:18;;;;;;;3.70;3.35;;;10.80;99.90;;;;;;4976182;28;20034;-83
2023/11/09 00:33:44;;;;;;;3.50;3.20;;;10.80;99.90;;;;;;4976496;28;20399;-83
2023/11/09 00:36:09;;;;;;;3.97;3.25;;;10.80;99.90;;;;;;4969278;28;20018;-83
2023/11/09 00:38:35;;;;;;;4.30;3.15;;;10.80;99.90;;;;;;4962554;28;20027;-84
2023/11/09 00:41:02;;;;;;;3.35;3.15;;;10.80;99.90;;;;;;4957450;28;20488;-83
2023/11/09 00:43:29;;;;;;;3.45;3.15;;;10.80;99.90;;;;;;4962531;28;20041;-86
2023/11/09 00:45:55;;;;;;;4.65;4.00;;;10.80;99.90;;;;;;4975739;28;20479;-86
2023/11/09 00:48:21;;;;;;;6.60;3.90;;;10.80;99.90;;;;;;4976168;28;20031;-85
2023/11/09 00:50:46;;;;;;;4.32;3.95;;;10.80;99.90;;;;;;4976671;28;20027;-85
2023/11/09 00:53:12;;;;;;;4.13;3.83;;;10.80;99.90;;;;;;4975523;28;20054;-85
2023/11/09 00:55:38;;;;;;;4.82;3.45;;;11.50;99.90;;;;;;4971925;28;20023;-85
2023/11/09 00:58:03;;;;;;;3.70;3.33;;;10.80;99.90;;;;;;4970182;28;20043;-86
2023/11/09 01:00:29;;;;;;;3.85;3.45;;;10.80;99.90;;;;;;4971543;28;20031;-85
2023/11/09 01:02:54;;;;;;;2.92;2.72;;;10.80;99.90;;;;;;4973519;28;20498;-85
2023/11/09 01:05:20;;;;;;;3.92;3.28;;;10.80;99.90;;;;;;4973044;28;20153;-85
2023/11/09 01:07:46;;;;;;;3.55;3.25;;;10.80;99.90;;;;;;4956475;28;20019;-84
2023/11/09 01:10:13;;;;;;;5.10;3.30;;;10.80;99.90;;;;;;4957039;28;20535;-85
2023/11/09 01:12:38;;;;;;;3.92;3.53;;;10.80;99.90;;;;;;4955395;28;20030;-86
2023/11/09 01:15:04;;;;;;;3.90;3.60;;;10.80;99.90;;;;;;4975220;28;20380;-86
2023/11/09 01:17:30;;;;;;;3.90;3.05;;;10.80;99.90;;;;;;4975556;28;20027;-86
2023/11/09 01:19:56;;;;;;;2.83;2.63;;;10.80;99.90;;;;;;4964188;28;20034;-85
2023/11/09 01:22:21;;;;;;;5.88;3.75;;;10.70;99.90;;;;;;4958191;28;20053;-85
2023/11/09 01:24:47;;;;;;;4.03;2.90;;;10.90;99.90;;;;;;4975672;28;20039;-85
2023/11/09 01:27:13;;;;;;;4.57;3.13;;;10.80;99.90;;;;;;4963917;28;20396;-85
2023/11/09 01:29:39;;;;;;;4.07;2.85;;;10.80;99.90;;;;;;4956140;28;20109;-85
2023/11/09 01:32:05;;;;;;;4.00;3.10;;;10.80;99.90;;;;;;4955783;28;20591;-83
2023/11/09 01:34:31;;;;;;;4.32;2.72;;;10.80;99.90;;;;;;4970502;28;20487;-84
2023/11/09 01:36:57;;;;;;;5.22;2.83;;;10.80;99.90;;;;;;4976048;28;20022;-85
2023/11/09 01:39:23;;;;;;;4.13;2.35;;;10.80;99.90;;;;;;4975618;28;20475;-85
2023/11/09 01:41:48;;;;;;;2.47;2.28;;;10.90;99.90;;;;;;4973282;28;20022;-85
2023/11/09 01:44:14;;;;;;;4.80;2.60;;;10.90;99.90;;;;;;4971189;28;20066;-85
2023/11/09 01:46:43;;;;;;;3.35;3.03;;;10.80;99.90;;;;;;4959302;28;20617;-85
2023/11/09 01:49:10;;;;;;;2.92;2.72;;;10.80;99.90;;;;;;4966963;28;20031;-84
2023/11/09 01:51:37;;;;;;;2.80;2.60;;;10.90;99.90;;;;;;4974247;28;20051;-83
2023/11/09 01:54:03;;;;;;;3.15;2.88;;;10.80;99.90;;;;;;4974782;28;20031;-84
2023/11/09 01:56:29;;;;;;;2.95;2.75;;;10.80;99.90;;;;;;4973438;28;20034;-84
2023/11/09 01:58:55;;;;;;;3.33;3.03;;;10.80;99.90;;;;;;4974486;28;20495;-84
2023/11/09 02:01:25;;;;;;;4.22;3.00;;;10.90;99.90;;;;;;4958582;28;20541;-85
2023/11/09 02:03:52;;;;;;;3.43;3.13;;;10.90;99.90;;;;;;4954832;28;20039;-84
2023/11/09 02:06:18;;;;;;;5.75;3.00;;;10.90;99.90;;;;;;4955525;28;20034;-84
2023/11/09 02:08:45;;;;;;;3.95;2.90;;;10.90;99.90;;;;;;4955054;29;20031;-84
2023/11/09 02:11:10;;;;;;;2.72;2.47;;;10.90;99.90;;;;;;4955882;28;20047;-84
2023/11/09 02:13:36;;;;;;;2.50;2.28;;;10.90;99.90;;;;;;4965339;28;20033;-85
2023/11/09 02:16:05;;;;;;;2.53;1.88;;;10.90;99.90;;;;;;4974024;28;20027;-84
2023/11/09 02:18:31;;;;;;;2.25;1.40;;;10.90;99.90;;;;;;4974752;28;20038;-84
2023/11/09 02:20:57;;;;;;;1.27;0.90;;;10.90;99.90;;;;;;4975094;28;20118;-85
2023/11/09 02:23:23;;;;;;;1.95;0.98;;;10.80;99.90;;;;;;4976927;28;20118;-85
2023/11/09 02:25:50;;;;;;;1.10;1.00;;;10.80;99.90;;;;;;4960967;28;20034;-85
2023/11/09 02:28:15;;;;;;;2.00;1.05;;;10.80;99.90;;;;;;4970511;28;20030;-84
2023/11/09 02:30:41;;;;;;;2.28;1.20;;;10.70;99.90;;;;;;4973901;28;20027;-85
2023/11/09 02:33:09;;;;;;;1.15;0.90;;;10.80;99.90;;;;;;4967574;28;20104;-85
2023/11/09 02:35:34;;;;;;;2.05;1.10;;;11.00;99.90;;;;;;4955231;28;20031;-85
2023/11/09 02:38:00;;;;;;;2.28;0.77;;;10.70;99.90;;;;;;4954626;28;20038;-85
2023/11/09 02:40:26;;;;;;;2.20;1.20;;;10.70;99.90;;;;;;4954976;28;20039;-85
2023/11/09 02:42:51;;;;;;;1.70;1.30;;;10.70;99.90;;;;;;4955225;28;20110;-85
2023/11/09 02:45:17;;;;;;;1.25;1.15;;;10.70;99.90;;;;;;4961227;28;20464;-85
2023/11/09 02:47:43;;;;;;;1.52;1.42;;;10.70;99.90;;;;;;4974066;28;20053;-85
2023/11/09 02:50:09;;;;;;;5.07;1.10;;;10.60;99.90;;;;;;4962428;28;20508;-84
2023/11/09 02:52:34;;;;;;;1.00;0.93;;;10.60;99.90;;;;;;4953721;28;20023;-84
2023/11/09 02:55:00;;;;;;;1.50;0.90;;;10.60;99.90;;;;;;4973199;28;20042;-85
2023/11/09 02:57:27;;;;;;;2.53;1.23;;;10.60;99.90;;;;;;4967451;28;20551;-85
2023/11/09 02:59:54;;;;;;;1.30;1.17;;;10.60;99.90;;;;;;4954452;28;20039;-84
2023/11/09 03:02:19;;;;;;;1.23;0.95;;;10.60;99.90;;;;;;4954786;28;20384;-84
2023/11/09 03:04:46;;;;;;;0.80;0.80;;;10.60;99.90;;;;;;4953902;28;20089;-84
2023/11/09 03:07:15;;;;;;;1.73;1.00;;;10.50;99.90;;;;;;4956381;28;20081;-84
2023/11/09 03:09:41;;;;;;;0.88;0.80;;;10.50;99.90;;;;;;4954225;28;20039;-84
2023/11/09 03:12:07;;;;;;;2.72;1.23;;;10.50;99.90;;;;;;4968814;28;20015;-84
2023/11/09 03:14:34;;;;;;;1.45;1.30;;;10.50;99.90;;;;;;4973958;28;20029;-84
2023/11/09 03:17:06;;;;;;;1.10;1.00;;;10.50;99.90;;;;;;4962854;28;20023;-84
2023/11/09 03:19:33;;;;;;;1.27;1.17;;;10.50;99.90;;;;;;4953954;28;20035;-84
2023/11/09 03:21:58;;;;;;;1.42;1.30;;;10.60;99.90;;;;;;4954684;28;20110;-84
2023/11/09 03:24:24;;;;;;;2.13;0.93;;;10.60;99.90;;;;;;4969580;28;20162;-84
2023/11/09 03:26:49;;;;;;;3.15;1.23;;;10.70;99.90;;;;;;4973466;28;20043;-85
2023/11/09 03:29:15;;;;;;;2.10;0.80;;;10.60;99.90;;;;;;4974145;28;20030;-84
2023/11/09 03:31:41;;;;;;;1.75;1.08;;;10.60;99.90;;;;;;4973329;28;20527;-84
2023/11/09 03:34:06;;;;;;;1.95;1.13;;;10.50;99.90;;;;;;4965258;28;20479;-84
2023/11/09 03:36:32;;;;;;;2.53;1.50;;;10.40;99.90;;;;;;4977645;28;20037;-84
2023/11/09 03:38:57;;;;;;;1.23;1.00;;;10.40;99.90;;;;;;4977962;28;20038;-84
2023/11/09 03:41:25;;;;;;;2.33;1.20;;;10.40;99.90;;;;;;4976896;28;20029;-85
2023/11/09 03:43:50;;;;;;;2.05;1.20;;;10.50;99.90;;;;;;4968610;28;20047;-87
2023/11/09 03:46:16;;;;;;;3.95;1.52;;;10.50;99.90;;;;;;4958868;28;20033;-86
2023/11/09 03:48:41;;;;;;;3.38;1.52;;;10.50;99.90;;;;;;4957914;28;20416;-85
2023/11/09 03:51:07;;;;;;;2.30;1.52;;;10.50;99.90;;;;;;4958350;28;20034;-84
2023/11/09 03:53:33;;;;;;;5.65;2.63;;;10.50;99.90;;;;;;4958006;28;20102;-87
2023/11/09 03:55:58;;;;;;;3.42;2.70;;;10.50;99.90;;;;;;4958159;28;20030;-89
2023/11/09 03:58:24;;;;;;;3.22;2.92;;;10.50;99.90;;;;;;4975121;28;20050;-85
2023/11/09 04:00:49;;;;;;;5.00;2.70;;;10.50;99.90;;;;;;4976008;28;20023;-84
2023/11/09 04:03:15;;;;;;;5.93;2.70;;;10.50;99.90;;;;;;4967000;28;20030;-84
2023/11/09 04:05:41;;;;;;;3.42;2.53;;;10.50;99.90;;;;;;4957653;28;20427;-84
2023/11/09 04:08:06;;;;;;;4.53;3.15;;;10.50;99.90;;;;;;4972323;28;20022;-84
2023/11/09 04:10:32;;;;;;;8.30;3.83;;;10.60;99.90;;;;;;4958662;28;20121;-84
2023/11/09 04:12:57;;;;;;;5.78;4.50;;;10.60;99.90;;;;;;4958802;28;20114;-83
2023/11/09 04:15:23;;;;;;;6.57;4.90;;;10.60;99.90;;;;;;4969338;28;20028;-83
2023/11/09 04:17:48;;;;;;;5.70;5.10;;;10.60;99.90;;;;;;4957797;28;20077;-84
2023/11/09 04:20:16;;;;;;;7.20;4.80;;;10.60;99.90;;;;;;4969738;28;20101;-83
2023/11/09 04:22:43;;;;;;;7.28;5.75;;;10.50;99.90;;;;;;4975771;28;20023;-84
2023/11/09 04:25:09;;;;;;;9.10;6.82;;;10.40;99.90;;;;;;4976909;28;20060;-84
2023/11/09 04:27:36;;;;;;;8.02;6.35;;;10.40;99.90;;;;;;4976773;28;20030;-84
2023/11/09 04:30:03;;;;;;;11.00;6.97;;;10.30;99.90;;;;;;4976171;28;20030;-83
2023/11/09 04:32:29;;;;;;;8.20;6.95;;;10.20;99.90;;;;;;4976921;28;20078;-84
2023/11/09 04:34:55;;;;;;;16.85;8.00;;;10.20;99.90;;;;;;4977340;28;20027;-84
2023/11/09 04:37:21;;;;;;;9.52;7.80;;;10.20;99.90;;;;;;4975199;28;20030;-83
2023/11/09 04:39:50;;;;;;;10.45;7.88;;;10.20;99.90;;;;;;4976739;28;20030;-84
2023/11/09 04:42:19;;;;;;;9.23;7.50;;;10.30;99.90;;;;;;4976812;28;20023;-84
2023/11/09 04:44:50;;;;;;;11.05;7.82;;;10.30;99.90;;;;;;4964782;28;20472;-84
2023/11/09 04:47:21;;;;;;;8.90;7.28;;;10.40;99.90;;;;;;4968505;28;20023;-83
2023/11/09 04:49:49;;;;;;;;;;;10.40;99.90;;;;;;4969754;28;20046;-83
2023/11/09 04:52:16;;;;;;;10.27;5.95;;;10.40;99.90;;;;;;4956404;28;19907;-84
2023/11/09 04:54:56;;;;;;;10.10;7.22;;;10.40;99.90;;;;;;4956832;28;20042;-84
2023/11/09 05:08:25;;;;;;;11.18;7.53;;;10.20;99.90;;;;;;4975500;28;20037;-84
2023/11/09 05:10:50;;;;;;;12.23;8.15;;;10.20;99.90;;;;;;4957449;28;20031;-84
2023/11/09 05:13:16;;;;;;;14.63;7.35;;;10.20;99.90;;;;;;4971785;28;20118;-84
2023/11/09 05:15:41;;;;;;;13.45;8.68;;;10.20;99.90;;;;;;4965621;28;20106;-84
2023/11/09 05:18:07;;;;;;;13.95;7.38;;;10.10;99.90;;;;;;4956689;28;20391;-84
2023/11/09 05:20:33;;;;;;;12.15;8.18;;;10.10;99.90;;;;;;4955767;28;20106;-84
2023/11/09 05:22:58;;;;;;;8.18;7.22;;;10.10;99.90;;;;;;4958733;28;20066;-84
2023/11/09 05:25:24;;;;;;;9.00;7.07;;;10.10;99.90;;;;;;4959633;28;20070;-84
2023/11/09 05:27:49;;;;;;;13.35;6.30;;;10.10;99.90;;;;;;4975543;28;20050;-86
2023/11/09 05:30:16;;;;;;;9.55;6.88;;;10.20;99.90;;;;;;4969677;28;20032;-84
2023/11/09 05:32:44;;;;;;;11.82;7.10;;;10.20;99.90;;;;;;4955528;28;20027;-84
2023/11/09 05:35:10;;;;;;;10.55;6.60;;;10.20;99.90;;;;;;4956561;28;20027;-84
2023/11/09 05:37:37;;;;;;;11.38;7.32;;;10.20;99.90;;;;;;4955254;29;20479;-84
2023/11/09 05:40:07;;;;;;;10.10;6.20;;;10.20;99.90;;;;;;4955835;28;20423;-84
2023/11/09 05:42:33;;;;;;;8.53;5.90;;;10.10;99.90;;;;;;4960350;28;20034;-83
2023/11/09 05:45:01;;;;;;;13.18;6.55;;;10.20;99.90;;;;;;4965982;28;20122;-84
2023/11/09 05:47:27;;;;;;;12.85;6.03;;;10.20;99.90;;;;;;4964996;28;20081;-83
2023/11/09 05:49:56;;;;;;;10.35;5.53;;;10.20;99.90;;;;;;4956441;28;20031;-86
2023/11/09 05:52:22;;;;;;;8.93;6.35;;;10.20;99.90;;;;;;4965565;28;20463;-84
2023/11/09 05:54:49;;;;;;;11.50;5.75;;;10.30;99.90;;;;;;4974513;28;20069;-84
2023/11/09 05:57:16;;;;;;;6.38;5.10;;;10.30;99.90;;;;;;4974939;28;20039;-85
2023/11/09 05:59:41;;;;;;;10.18;5.45;;;10.40;99.90;;;;;;4974754;28;20518;-85
2023/11/09 06:02:07;;;;;;;7.47;5.28;;;10.40;99.90;;;;;;4959517;28;20122;-85
2023/11/09 06:04:33;;;;;;;13.25;6.03;;;10.40;99.90;;;;;;4956958;28;20117;-84
2023/11/09 06:07:00;;;;;;;11.30;5.45;;;10.40;99.90;;;;;;4973199;28;20106;-84
2023/11/09 06:09:25;;;;;;;12.95;5.97;;;10.40;99.90;;;;;;4961210;28;20035;-85
2023/11/09 06:11:54;;;;;;;9.60;5.18;;;10.40;99.90;;;;;;4964251;28;20030;-85
2023/11/09 06:14:20;;;;;;;13.65;5.97;;;10.40;99.90;;;;;;4955071;28;20039;-84
2023/11/09 06:16:46;;;;;;;10.40;5.30;;;10.40;99.90;;;;;;4955129;28;20131;-84
2023/11/09 06:19:14;;;;;;;6.18;4.95;;;10.40;99.90;;;;;;4955583;28;20031;-85
2023/11/09 06:21:40;;;;;;;12.10;6.03;;;10.40;99.90;;;;;;4967904;28;20041;-85
2023/11/09 06:24:07;;;;;;;9.43;5.10;;;10.40;99.90;;;;;;4974540;28;20126;-84
2023/11/09 06:26:33;;;;;;;12.25;5.00;;;10.40;99.90;;;;;;4972761;28;20038;-83
2023/11/09 06:28:59;;;;;;;12.45;5.05;;;10.40;99.90;;;;;;4973141;28;20031;-83
2023/11/09 06:31:26;;;;;;;8.15;4.90;;;10.40;99.90;;;;;;4974476;28;20473;-83
2023/11/09 06:33:54;;;;;;;11.85;5.15;;;10.40;99.90;;;;;;4974550;28;20026;-84
2023/11/09 06:36:20;;;;;;;15.35;5.55;;;10.40;99.90;;;;;;4967356;28;20035;-84
2023/11/09 06:38:46;;;;;;;14.05;5.32;;;10.30;99.90;;;;;;4954958;28;20027;-84
2023/11/09 06:41:13;;;;;;;13.13;5.28;;;10.30;99.90;;;;;;4955334;28;20035;-84
2023/11/09 06:43:38;;;;;;;7.80;4.60;;;10.90;99.90;;;;;;4961673;28;20022;-84
2023/11/09 06:46:04;;;;;;;10.27;5.05;;;10.30;99.90;;;;;;4971056;28;20022;-83
2023/11/09 06:48:30;;;;;;;13.95;5.30;;;10.20;99.90;;;;;;4973680;28;20502;-84
2023/11/09 06:50:56;;;;;;;13.85;4.88;;;10.20;99.90;;;;;;4965299;28;20035;-84
2023/11/09 06:53:22;;;;;;;11.02;3.72;;;10.20;99.90;;;;;;4956540;28;20024;-84
2023/11/09 06:55:47;;;;;;;26.55;5.40;;;10.10;99.90;;;;;;4954641;28;20608;-84
2023/11/09 06:58:13;;;;;;;13.07;5.32;;;10.10;99.90;;;;;;4953916;28;20142;-84
2023/11/09 07:00:39;;;;;;;12.18;5.15;;;10.10;99.90;;;;;;4954624;28;20074;-83
2023/11/09 07:03:05;;;;;;;12.73;5.20;;;10.10;99.90;;;;;;4955037;28;20171;-84
2023/11/09 07:05:30;;;;;;;14.55;6.13;;;10.00;99.90;;;;;;4953528;28;20450;-84
2023/11/09 07:07:56;;;;;;;10.30;6.05;;;10.00;99.90;;;;;;4962400;28;20027;-84
2023/11/09 07:10:23;;;;;;;14.73;7.28;;;10.00;99.90;;;;;;4971712;28;20049;-84
2023/11/09 07:12:49;;;;;;;22.75;7.70;;;10.00;99.90;;;;;;4971431;28;20054;-84
2023/11/09 07:15:16;;;;;;;22.27;8.32;;;10.00;99.90;;;;;;4971866;28;20112;-84
2023/11/09 07:17:42;;;;;;;18.52;8.07;;;10.40;99.90;;;;;;4963250;28;20038;-83
2023/11/09 07:20:10;;;;;;;15.30;8.38;;;10.00;99.90;;;;;;4959000;28;20024;-84
2023/11/09 07:22:35;;;;;;;14.07;8.15;;;10.00;99.90;;;;;;4952780;28;20027;-84
2023/11/09 07:25:01;;;;;;;19.77;9.95;;;10.00;99.90;;;;;;4952427;28;20399;-83
2023/11/09 07:27:27;;;;;;;15.60;8.45;;;10.00;99.90;;;;;;4954472;28;20028;-84
2023/11/09 07:29:54;;;;;;;17.40;8.48;;;10.00;99.90;;;;;;4956762;28;20427;-83
2023/11/09 07:32:19;;;;;;;17.38;8.52;;;10.00;99.90;;;;;;4961983;28;20023;-84
2023/11/09 07:34:45;;;;;;;15.50;8.07;;;9.90;99.90;;;;;;4954456;28;20027;-83
2023/11/09 07:37:16;;;;;;;21.60;7.60;;;9.90;99.90;;;;;;4955281;28;20039;-83
2023/11/09 07:39:43;;;;;;;17.17;6.68;;;10.00;99.90;;;;;;4953861;28;20082;-84
2023/11/09 07:42:09;;;;;;;16.67;6.57;;;9.90;99.90;;;;;;4955424;28;20024;-87
2023/11/09 07:44:34;;;;;;;16.80;6.88;;;10.00;99.90;;;;;;4969848;28;20113;-86
2023/11/09 07:47:00;;;;;;;18.95;6.50;;;9.90;99.90;;;;;;4971429;28;20019;-88
2023/11/09 07:49:30;;;;;;;16.17;6.20;;;9.90;99.90;;;;;;4972309;28;20082;-88
2023/11/09 07:51:59;;;;;;;16.58;6.13;;;10.00;99.90;;;;;;4967200;28;20102;-87
2023/11/09 07:54:25;;;;;;;14.85;5.20;;;10.00;99.90;;;;;;4971171;28;20031;-88
2023/11/09 07:56:51;;;;;;;19.13;5.82;;;10.00;99.90;;;;;;4972832;28;20134;-85
2023/11/09 07:59:17;;;;;;;14.70;6.35;;;10.00;99.90;;;;;;4973479;28;20113;-88
2023/11/09 08:01:43;;;;;;;22.33;6.57;;;10.00;99.90;;;;;;4972674;28;20026;-87
2023/11/09 08:04:09;;;;;;;21.10;6.03;;;10.00;99.90;;;;;;4973371;28;20035;-87
2023/11/09 08:06:38;;;;;;;14.20;5.47;;;10.00;99.90;;;;;;4973135;28;20026;-87
2023/11/09 08:09:05;;;;;;;16.17;6.10;;;10.00;99.90;;;;;;4973333;28;20118;-89
2023/11/09 08:11:32;;;;;;;14.43;5.35;;;10.00;99.90;;;;;;4974472;28;20030;-90
2023/11/09 08:13:58;;;;;;;18.35;6.13;;;10.00;99.90;;;;;;4974975;28;20026;-90
2023/11/09 08:16:23;;;;;;;11.13;5.43;;;10.00;99.90;;;;;;4972470;28;20382;-88
2023/11/09 08:18:49;;;;;;;17.00;5.90;;;10.10;99.90;;;;;;4968503;28;20027;-83
2023/11/09 08:21:15;;;;;;;19.88;5.78;;;10.10;99.90;;;;;;4957233;28;20029;-83
2023/11/09 08:23:42;;;;;;;18.33;6.75;;;10.10;99.90;;;;;;4976474;28;20069;-84
2023/11/09 08:26:10;;;;;;;21.00;6.45;;;10.10;99.90;;;;;;4978025;28;20027;-91
2023/11/09 08:28:35;;;;;;;19.02;6.07;;;10.10;99.90;;;;;;4976768;28;20050;-88
2023/11/09 08:31:01;;;;;;;18.83;6.60;;;10.10;99.90;;;;;;4976767;28;20057;-85
2023/11/09 08:33:29;;;;;;;19.10;6.25;;;10.20;99.90;;;;;;4976440;28;20019;-88
2023/11/09 08:35:55;;;;;;;17.65;6.80;;;10.20;99.90;;;;;;4965555;28;20028;-85
2023/11/09 08:38:22;;;;;;;35.88;7.47;;;10.20;99.90;;;;;;4957720;28;20034;-91
2023/11/09 08:40:48;;;;;;;19.60;6.22;;;10.20;99.90;;;;;;4959688;28;20023;-92
2023/11/09 08:43:14;;;;;;;18.08;6.22;;;10.20;99.90;;;;;;4958359;28;20078;-88
2023/11/09 08:45:40;;;;;;;15.65;6.75;;;10.20;99.90;;;;;;4958783;28;20047;-90
2023/11/09 08:48:07;;;;;;;26.60;6.50;;;10.20;99.90;;;;;;4962983;28;20050;-88
2023/11/09 08:50:36;;;;;;;21.83;5.68;;;10.20;99.90;;;;;;4967086;28;20035;-92
2023/11/09 08:53:03;;;;;;;23.80;5.70;;;10.20;99.90;;;;;;4971689;28;20030;-90
2023/11/09 08:55:29;;;;;;;18.88;5.10;;;10.30;99.90;;;;;;4960330;28;20038;-87
2023/11/09 08:57:58;;;;;;;17.40;4.68;;;10.30;99.90;;;;;;4966695;28;20043;-89
2023/11/09 09:00:24;;;;;;;21.40;4.70;;;10.20;99.90;;;;;;4975972;28;20038;-89
2023/11/09 09:02:49;;;;;;;25.00;5.47;;;10.30;99.90;;;;;;4976201;28;20023;-90
2023/11/09 09:05:20;;;;;;;16.00;5.25;;;10.60;99.90;;;;;;4973748;28;20550;-88
2023/11/09 09:07:46;;;;;;;;;;;10.20;99.90;;;;;;4957235;28;20431;-89
2023/11/09 09:10:15;;;;;;;20.50;5.15;;;10.20;99.90;;;;;;4956469;28;19969;-89
2023/11/09 09:12:45;;;;;;;22.75;4.57;;;10.20;99.90;;;;;;4956619;28;20095;-88
2023/11/09 09:15:16;;;;;;;22.15;4.78;;;10.20;99.90;;;;;;4971331;28;20056;-88
2023/11/09 09:17:49;;;;;;;22.95;6.10;;;10.20;99.90;;;;;;4955547;28;20035;-88
2023/11/09 09:20:19;;;;;;;25.27;5.70;;;10.20;99.90;;;;;;4955852;28;20023;-88
2023/11/09 09:22:47;;;;;;;21.92;6.18;;;10.20;99.90;;;;;;4956770;28;20027;-90
2023/11/09 09:25:14;;;;;;;18.02;6.78;;;10.30;99.90;;;;;;4961321;28;20043;-89
2023/11/09 09:27:43;;;;;;;24.80;8.35;;;10.20;99.90;;;;;;4964207;28;20022;-88
2023/11/09 09:30:10;;;;;;;22.13;6.20;;;10.20;99.90;;;;;;4975287;28;20475;-86
2023/11/09 09:32:43;;;;;;;22.50;6.95;;;10.20;99.90;;;;;;4962169;28;20035;-88
2023/11/09 09:35:12;;;;;;;22.10;7.20;;;10.30;99.90;;;;;;4968417;28;20027;-89
2023/11/09 09:37:45;;;;;;;31.35;7.78;;;10.30;99.90;;;;;;4957488;28;20074;-86
2023/11/09 09:40:15;;;;;;;23.67;7.63;;;10.30;99.90;;;;;;4972544;28;20050;-85
2023/11/09 09:42:50;;;;;;;19.15;7.20;;;10.30;99.90;;;;;;4975504;28;20034;-89
2023/11/09 09:45:33;;;;;;;20.20;7.50;;;10.30;99.90;;;;;;4974265;28;20042;-88
2023/11/09 09:48:01;;;;;;;27.27;6.93;;;10.30;99.90;;;;;;4975663;28;20058;-88
2023/11/09 09:50:37;;;;;;;14.27;5.63;;;10.30;99.90;;;;;;4975308;28;20158;-91
2023/11/09 09:53:04;;;;;;;23.48;6.53;;;10.40;99.90;;;;;;4981369;28;20030;-88
2023/11/09 09:55:30;;;;;;;18.75;5.68;;;10.30;99.90;;;;;;4979048;28;20548;-90
2023/11/09 09:57:57;;;;;;;19.33;5.30;;;10.40;99.90;;;;;;4980372;28;20047;-92
2023/11/09 10:00:23;;;;;;;19.30;5.00;;;10.60;99.90;;;;;;4976812;28;20025;-88
2023/11/09 10:02:50;;;;;;;21.25;6.07;;;10.40;99.90;;;;;;4977814;28;20117;-89
2023/11/09 10:05:17;;;;;;;16.63;4.95;;;10.40;99.90;;;;;;4982290;28;20061;-85
2023/11/09 10:07:56;;;;;;;18.25;4.80;;;10.40;99.90;;;;;;4987599;28;20124;-91
2023/11/09 10:10:21;;;;;;;15.82;5.05;;;10.50;99.90;;;;;;4983318;28;20027;-86
2023/11/09 10:12:47;;;;;;;16.88;4.40;;;10.50;99.90;;;;;;4973559;28;20057;-88
2023/11/09 10:15:15;;;;;;;18.73;4.57;;;10.50;99.90;;;;;;4974719;28;20486;-86
2023/11/09 10:17:41;;;;;;;18.92;4.60;;;10.50;99.90;;;;;;4975873;28;20454;-87
2023/11/09 10:20:13;;;;;;;22.05;5.80;;;10.50;99.90;;;;;;4975746;28;20051;-87
2023/11/09 10:22:39;;;;;;;23.50;5.13;;;10.50;99.90;;;;;;4971672;28;20494;-92
2023/11/09 10:25:05;;;;;;;19.63;4.80;;;10.50;99.90;;;;;;4956883;28;20114;-84
2023/11/09 10:27:31;;;;;;;23.88;4.60;;;10.50;99.90;;;;;;4955312;28;20039;-87
2023/11/09 10:29:57;;;;;;;10.60;3.97;;;10.50;99.90;;;;;;4955362;28;20031;-83
2023/11/09 10:32:23;;;;;;;14.95;4.28;;;10.80;99.90;;;;;;4969493;28;20041;-83
2023/11/09 10:34:51;;;;;;;20.17;4.60;;;10.60;99.90;;;;;;4972364;28;20475;-86
2023/11/09 10:37:18;;;;;;;17.55;3.55;;;10.50;99.90;;;;;;4973542;28;20472;-83
2023/11/09 10:39:47;;;;;;;12.52;4.45;;;10.90;99.90;;;;;;4973570;28;20170;-89
2023/11/09 10:42:13;;;;;;;21.60;3.97;;;10.60;99.90;;;;;;4961358;28;20019;-83
2023/11/09 10:44:43;;;;;;;17.20;4.38;;;10.60;99.90;;;;;;4973028;28;20475;-84
2023/11/09 10:47:09;;;;;;;18.43;3.53;;;10.60;99.90;;;;;;4974459;28;20026;-83
2023/11/09 10:49:43;;;;;;;18.75;3.88;;;10.60;99.90;;;;;;4973382;28;20041;-83
2023/11/09 10:52:10;;;;;;;17.83;4.00;;;10.60;99.90;;;;;;4961722;28;20043;-83
2023/11/09 10:54:37;;;;;;;15.98;3.30;;;10.60;99.90;;;;;;4954531;28;20023;-83
2023/11/09 10:57:05;;;;;;;22.00;3.63;;;10.60;99.90;;;;;;4960606;28;20134;-83
2023/11/09 10:59:30;;;;;;;12.60;3.28;;;10.70;99.90;;;;;;4959340;28;20031;-84
2023/11/09 11:02:04;;;;;;;21.73;4.43;;;10.70;99.90;;;;;;4960074;28;20098;-84
2023/11/09 11:04:34;;;;;;;23.00;3.67;;;10.80;99.90;;;;;;4951209;28;20039;-84
2023/11/09 11:07:06;;;;;;;16.48;4.13;;;11.40;99.90;;;;;;4970550;28;20045;-83
2023/11/09 11:09:37;;;;;;;15.13;3.67;;;10.80;99.90;;;;;;4970319;28;20034;-83
2023/11/09 11:12:10;;;;;;;20.95;3.92;;;10.80;99.90;;;;;;4970599;28;20050;-83
2023/11/09 11:14:41;;;;;;;21.95;5.07;;;10.80;99.90;;;;;;4971740;28;20397;-84
2023/11/09 11:17:24;;;;;;;16.98;4.30;;;10.20;99.90;;;;;;4969965;28;20029;-84
2023/11/09 11:20:20;;;;;;;18.33;4.75;;;10.90;99.90;;;;;;4956622;28;20028;-83
2023/11/09 11:22:55;;;;;;;22.63;4.68;;;10.90;99.90;;;;;;4974122;28;20054;-83
2023/11/09 11:25:45;;;;;;;19.48;4.90;;;10.90;99.90;;;;;;4973087;28;20450;-83
2023/11/09 11:28:11;;;;;;;13.32;5.05;;;10.90;99.90;;;;;;4954737;28;20038;-83
2023/11/09 11:30:41;;;;;;;24.77;5.78;;;11.00;99.90;;;;;;4960940;28;20472;-83
2023/11/09 11:33:11;;;;;;;12.88;4.00;;;10.90;99.90;;;;;;4972910;28;20427;-83
2023/11/09 11:35:43;;;;;;;23.88;5.43;;;10.90;99.90;;;;;;4973469;28;20499;-83
2023/11/09 11:38:23;;;;;;;13.43;3.58;;;11.00;99.90;;;;;;4970902;28;20054;-83
2023/11/09 11:41:12;;;;;;;12.02;3.13;;;11.00;99.90;;;;;;4954622;29;20376;-83
2023/11/09 11:43:41;;;;;;;16.40;3.03;;;11.00;99.90;;;;;;4953565;28;20065;-87
2023/11/09 11:46:12;;;;;;;14.70;3.55;;;11.00;99.90;;;;;;4973059;28;20122;-89
2023/11/09 11:48:53;;;;;;;15.13;4.28;;;11.00;99.90;;;;;;4968168;28;20077;-87
2023/11/09 11:51:20;;;;;;;18.95;3.97;;;11.00;99.90;;;;;;4958607;28;20442;-84
2023/11/09 11:54:08;;;;;;;17.10;4.07;;;11.00;99.90;;;;;;4973913;28;20030;-86
2023/11/09 11:56:33;;;;;;;20.70;3.45;;;11.10;99.90;;;;;;4992776;28;20050;-90
2023/11/09 11:59:06;;;;;;;15.43;3.67;;;11.10;99.90;;;;;;4982231;28;20039;-88
2023/11/09 12:01:33;;;;;;;12.73;3.70;;;11.70;99.90;;;;;;4959093;28;20020;-89
2023/11/09 12:04:00;;;;;;;13.40;3.05;;;11.20;99.90;;;;;;4977701;28;20039;-88
2023/11/09 12:06:27;;;;;;;20.35;4.65;;;11.10;99.90;;;;;;4972286;28;20027;-90
2023/11/09 12:08:55;;;;;;;21.02;3.83;;;11.10;99.90;;;;;;4975813;28;20081;-86
2023/11/09 12:11:24;;;;;;;19.25;3.85;;;11.00;99.90;;;;;;4977148;28;20033;-85
2023/11/09 12:13:51;;;;;;;8.93;2.70;;;11.00;99.90;;;;;;4962085;28;20063;-83
2023/11/09 12:16:17;;;;;;;15.40;3.13;;;11.10;99.90;;;;;;4976540;28;20098;-84
2023/11/09 12:18:47;;;;;;;14.68;3.58;;;11.10;99.90;;;;;;4976906;28;20042;-84
2023/11/09 12:21:18;;;;;;;27.17;4.27;;;11.10;99.90;;;;;;4972261;28;20031;-84
2023/11/09 12:23:52;;;;;;;11.52;3.00;;;11.10;99.90;;;;;;4967264;28;20274;-83
2023/11/09 12:26:23;;;;;;;15.20;3.83;;;11.20;99.90;;;;;;4957689;28;20031;-83
2023/11/09 12:28:49;;;;;;;12.63;2.90;;;11.20;99.90;;;;;;4957552;28;20158;-84
2023/11/09 12:31:16;;;;;;;12.00;3.60;;;11.20;99.90;;;;;;4957595;29;20058;-83
2023/11/09 12:34:09;;;;;;;14.75;3.60;;;11.20;99.90;;;;;;4957052;28;20023;-84
2023/11/09 12:36:41;;;;;;;16.00;3.13;;;11.20;99.90;;;;;;4972611;28;20027;-83
2023/11/09 12:39:28;;;;;;;13.07;3.83;;;11.20;99.90;;;;;;4976940;28;20030;-83
2023/11/09 12:41:52;;;;;;;11.85;2.88;;;11.20;99.90;;;;;;4974426;28;20109;-84
2023/11/09 12:44:24;;;;;;;13.70;3.67;;;11.20;99.90;;;;;;4976162;28;20559;-84
2023/11/09 12:46:54;;;;;;;24.77;4.47;;;11.20;99.90;;;;;;4976716;28;20161;-90
2023/11/09 12:49:22;;;;;;;19.15;3.72;;;11.20;99.90;;;;;;4977456;28;20053;-85
2023/11/09 12:51:48;;;;;;;20.30;3.70;;;11.20;99.90;;;;;;4964665;28;20035;-87
2023/11/09 12:54:13;;;;;;;29.70;4.38;;;11.20;99.90;;;;;;4957303;28;20069;-86